Share

Point Baker, AK

MARITIME (MC6QM8) Elev 0 ft | 24.40 °N, 81.30 °W | Change Station

Current weather conditions updated 5 days ago

Mostly Cloudy
Mostly Cloudy
47 °F
Feels Like 47 °F
N
14
Wind Variable Wind from East
Gusts 28 mph
Sunrise 5:38 AM
Sunset 8:10 PM
Moon Waning Gibbous

Today is forecast to be nearly the same temperature as yesterday. Showers possible in the afternoon.

Pressure 29.48 in
Visibility 10.0 miles
Clouds Overcast 6000 ft
Dew Point 33 °F
Humidity 58%
Rainfall -999.00 in
Snow Depth Not available.
UV 1 out of 16
Pollen Not available.
Air Quality Not available.
Flu Activity Sporadic
METAR PAWG 191836Z 10004KT 10SM OVC060 08/01 A2948 RMK AO1 WEA:NONE (KB)

More Conditions Fewer Conditions

Pressure 29.48 in
Visibility 10.0 miles
Clouds Overcast 6000 ft
Dew Point 33 °F
Humidity 58%
Rainfall -999.00 in
Snow Depth Not available.
UV 1 out of 16
Pollen Not available.
Air Quality Not available.
Flu Activity Sporadic
METAR PAWG 191836Z 10004KT 10SM OVC060 08/01 A2948 RMK AO1 WEA:NONE (KB)

More Conditions Fewer Conditions

10-Day Weather Forecast

Almanac

Astronomy

Apr. 19, 2014 Rise Set
Actual Time 5:38 AM AKDT 8:10 PM AKDT
Civil Twilight 4:56 AM AKDT 8:52 PM AKDT
Nautical Twilight 4:03 AM AKDT 9:46 PM AKDT
Astronomical Twilight 2:55 AM AKDT 10:56 PM AKDT
Moon 12:27 AM AKDT 8:37 AM AKDT
Length of Visible Light 15h 55m
Length of Day
14h 32m
Tomorrow will be 4m 33s longer.
Waning Gibbous, 77% of the Moon is Illuminated
Today
Waning Gibbous
Apr 22
Last Quarter
Apr 29
New
May 6
First Quarter
May 14
Full

Today's Extremes

State Highs State Lows

Community

  • Piriapolis
    Piriapolis
  • A Glorious Morning
    A Glorious Morning
  • Tender Rays Of Hope
    Tender Rays Of Hope
  • Bleeding Hearts
    Bleeding Hearts
  • Sunset Silhouettes
    Sunset Silhouettes

WunderPhotos

Upload Photos

1,702,840 photos uploaded!

WunderBlogs® & News

Nearby

Snow Depth

Station Depth Elevation
Long Lake 98 in 820 ft
Upper Tsaina River 54 in 1750 ft
Moraine 9 in 2100 ft
Nuka Glacier 33 in 1250 ft
Grouse Creek Divide 25 in 700 ft

Coastal Water Temperatures

Place Temperature
No Stations Reporting

Earthquake Activity

City Distance Mag. Time & Date
No recent earthquake activity has been reported nearby.
Minimum magnitude displayed is 2.5.

Nearby Weather Stations

There are no personal weather stations in this area.

What do you think?

We're not finished. Please let us know what you like, what you don't like, and what you are still missing.